Time,TemperatureF,DewpointF,PressureIn,WindDirection,WindDirectionDegrees,WindSpeedMPH,WindSpeedGustMPH,Humidity,HourlyPrecipIn,Conditions,Clouds,dailyrainin,SoftwareType,DateUTC
2013-04-10 00:03:00,66.0,-99.9,-100.00,SSE,153,2.0,-999.0,-999,0.00,,,0.00,,2013-04-10 05:03:00,
2013-04-10 00:13:00,66.0,-99.9,-100.00,SSE,153,2.0,-999.0,-999,0.00,,,0.00,,2013-04-10 05:13:00,
2013-04-10 00:23:00,66.0,-99.9,-100.00,SSE,153,2.0,-999.0,-999,0.00,,,0.00,,2013-04-10 05:23:00,
2013-04-10 00:33:00,66.0,-99.9,-100.00,SE,140,3.0,-999.0,-999,0.00,,,0.00,,2013-04-10 05:33:00,
2013-04-10 00:43:00,66.0,-99.9,-100.00,SE,140,3.0,-999.0,-999,0.00,,,0.00,,2013-04-10 05:43:00,
2013-04-10 00:54:00,66.0,-99.9,-100.00,SE,140,3.0,-999.0,-999,0.00,,,0.00,,2013-04-10 05:54:00,
2013-04-10 01:03:00,66.0,-99.9,-100.00,SSE,163,3.0,-999.0,-999,0.00,,,0.00,,2013-04-10 06:03:00,
2013-04-10 01:13:00,66.0,-99.9,-100.00,SSE,163,3.0,-999.0,-999,0.00,,,0.00,,2013-04-10 06:13:00,
2013-04-10 01:22:00,66.0,-99.9,-100.00,SSE,163,3.0,-999.0,-999,0.00,,,0.00,,2013-04-10 06:22:00,
2013-04-10 01:32:00,66.0,-99.9,-100.00,SSE,154,4.0,-999.0,-999,0.00,,,0.00,,2013-04-10 06:32:00,
2013-04-10 01:43:00,66.0,-99.9,-100.00,SSE,154,4.0,-999.0,-999,0.00,,,0.00,,2013-04-10 06:43:00,
2013-04-10 01:52:00,66.0,-99.9,-100.00,SSE,154,4.0,-999.0,-999,0.00,,,0.00,,2013-04-10 06:52:00,
2013-04-10 02:02:00,66.0,-99.9,-100.00,SSE,153,5.0,-999.0,-999,0.00,,,0.00,,2013-04-10 07:02:00,
2013-04-10 02:12:00,66.0,-99.9,-100.00,SSE,153,5.0,-999.0,-999,0.00,,,0.00,,2013-04-10 07:12:00,
2013-04-10 02:23:00,66.0,-99.9,-100.00,SSE,153,5.0,-999.0,-999,0.00,,,0.00,,2013-04-10 07:23:00,
2013-04-10 02:33:00,67.0,-99.9,-100.00,SSE,162,4.0,-999.0,-999,0.00,,,0.00,,2013-04-10 07:33:00,
2013-04-10 02:43:00,67.0,-99.9,-100.00,SSE,162,4.0,-999.0,-999,0.00,,,0.00,,2013-04-10 07:43:00,
2013-04-10 02:52:00,67.0,-99.9,-100.00,SSE,162,4.0,-999.0,-999,0.00,,,0.00,,2013-04-10 07:52:00,
2013-04-10 03:02:00,65.0,-99.9,-100.00,SSE,163,4.0,-999.0,-999,0.00,,,0.00,,2013-04-10 08:02:00,
2013-04-10 03:12:00,65.0,-99.9,-100.00,SSE,163,4.0,-999.0,-999,0.00,,,0.00,,2013-04-10 08:12:00,
2013-04-10 03:22:00,65.0,-99.9,-100.00,SSE,163,4.0,-999.0,-999,0.00,,,0.00,,2013-04-10 08:22:00,
2013-04-10 03:32:00,65.0,-99.9,-100.00,SE,144,4.0,-999.0,-999,0.00,,,0.00,,2013-04-10 08:32:00,
2013-04-10 03:43:00,65.0,-99.9,-100.00,SE,144,4.0,-999.0,-999,0.00,,,0.00,,2013-04-10 08:43:00,
2013-04-10 03:52:00,65.0,-99.9,-100.00,SE,144,4.0,-999.0,-999,0.00,,,0.00,,2013-04-10 08:52:00,
2013-04-10 04:03:00,66.0,-99.9,-100.00,SSE,148,5.0,-999.0,-999,0.00,,,0.00,,2013-04-10 09:03:00,
2013-04-10 04:13:00,66.0,-99.9,-100.00,SSE,148,5.0,-999.0,-999,0.00,,,0.00,,2013-04-10 09:13:00,
2013-04-10 04:23:00,66.0,-99.9,-100.00,SSE,148,5.0,-999.0,-999,0.00,,,0.00,,2013-04-10 09:23:00,
2013-04-10 04:33:00,67.0,-99.9,-100.00,SSE,147,5.0,-999.0,-999,0.00,,,0.00,,2013-04-10 09:33:00,
2013-04-10 04:43:00,67.0,-99.9,-100.00,SSE,147,5.0,-999.0,-999,0.00,,,0.00,,2013-04-10 09:43:00,
2013-04-10 04:53:00,67.0,-99.9,-100.00,SSE,147,5.0,-999.0,-999,0.00,,,0.00,,2013-04-10 09:53:00,
2013-04-10 05:03:00,64.0,-99.9,-100.00,WSW,258,14.0,-999.0,-999,0.02,,,0.02,,2013-04-10 10:03:00,
2013-04-10 05:13:00,64.0,-99.9,-100.00,WSW,258,14.0,-999.0,-999,0.02,,,0.02,,2013-04-10 10:13:00,
2013-04-10 05:23:00,64.0,-99.9,-100.00,WSW,258,14.0,-999.0,-999,0.02,,,0.02,,2013-04-10 10:23:00,
2013-04-10 05:33:00,54.0,-99.9,-100.00,NNW,335,16.0,-999.0,-999,0.04,,,0.04,,2013-04-10 10:33:00,
2013-04-10 05:43:00,54.0,-99.9,-100.00,NNW,335,16.0,-999.0,-999,0.04,,,0.04,,2013-04-10 10:43:00,
2013-04-10 05:53:00,54.0,-99.9,-100.00,NNW,335,16.0,-999.0,-999,0.04,,,0.04,,2013-04-10 10:53:00,
2013-04-10 06:03:00,50.0,-99.9,-100.00,North,6,23.0,-999.0,-999,0.02,,,0.04,,2013-04-10 11:03:00,
2013-04-10 06:12:00,50.0,-99.9,-100.00,North,6,23.0,-999.0,-999,0.02,,,0.04,,2013-04-10 11:12:00,
2013-04-10 06:22:00,50.0,-99.9,-100.00,North,6,23.0,-999.0,-999,0.02,,,0.04,,2013-04-10 11:22:00,
2013-04-10 06:33:00,49.0,-99.9,-100.00,North,9,15.0,-999.0,-999,0.00,,,0.04,,2013-04-10 11:33:00,
2013-04-10 06:42:00,49.0,-99.9,-100.00,North,9,15.0,-999.0,-999,0.00,,,0.04,,2013-04-10 11:42:00,
2013-04-10 06:53:00,49.0,-99.9,-100.00,North,9,15.0,-999.0,-999,0.00,,,0.04,,2013-04-10 11:53:00,
2013-04-10 07:03:00,49.0,-99.9,-100.00,NNE,16,18.0,-999.0,-999,0.00,,,0.04,,2013-04-10 12:03:00,
2013-04-10 07:12:00,49.0,-99.9,-100.00,NNE,16,18.0,-999.0,-999,0.00,,,0.04,,2013-04-10 12:12:00,
2013-04-10 07:23:00,49.0,-99.9,-100.00,NNE,16,18.0,-999.0,-999,0.00,,,0.04,,2013-04-10 12:23:00,
2013-04-10 07:33:00,48.0,-99.9,-100.00,NE,43,12.0,-999.0,-999,0.00,,,0.04,,2013-04-10 12:33:00,
2013-04-10 07:43:00,48.0,-99.9,-100.00,NE,43,12.0,-999.0,-999,0.00,,,0.04,,2013-04-10 12:43:00,
2013-04-10 07:52:00,48.0,-99.9,-100.00,NE,43,12.0,-999.0,-999,0.00,,,0.04,,2013-04-10 12:52:00,
2013-04-10 08:02:00,48.0,-99.9,-100.00,ENE,72,5.0,-999.0,-999,0.01,,,0.05,,2013-04-10 13:02:00,
2013-04-10 08:12:00,48.0,-99.9,-100.00,ENE,72,5.0,-999.0,-999,0.01,,,0.05,,2013-04-10 13:12:00,
2013-04-10 08:24:00,48.0,-99.9,-100.00,ENE,72,5.0,-999.0,-999,0.01,,,0.05,,2013-04-10 13:24:00,
2013-04-10 08:33:00,47.0,-99.9,-100.00,North,349,16.0,-999.0,-999,0.01,,,0.05,,2013-04-10 13:33:00,
2013-04-10 08:43:00,47.0,-99.9,-100.00,North,349,16.0,-999.0,-999,0.01,,,0.05,,2013-04-10 13:43:00,
2013-04-10 08:53:00,47.0,-99.9,-100.00,North,349,16.0,-999.0,-999,0.01,,,0.05,,2013-04-10 13:53:00,
2013-04-10 09:02:00,47.0,-99.9,-100.00,ENE,60,7.0,-999.0,-999,0.00,,,0.05,,2013-04-10 14:02:00,
2013-04-10 09:13:00,47.0,-99.9,-100.00,ENE,60,7.0,-999.0,-999,0.00,,,0.05,,2013-04-10 14:13:00,
2013-04-10 09:22:00,47.0,-99.9,-100.00,ENE,60,7.0,-999.0,-999,0.00,,,0.05,,2013-04-10 14:22:00,
2013-04-10 09:30:00,49.0,-99.9,-100.00,ESE,120,4.0,-999.0,-999,0.00,,,0.05,,2013-04-10 14:30:00,
2013-04-10 09:33:00,48.0,-99.9,-100.00,NE,45,10.0,-999.0,-999,0.00,,,0.05,,2013-04-10 14:33:00,
2013-04-10 09:42:00,48.0,-99.9,-100.00,NE,45,10.0,-999.0,-999,0.00,,,0.05,,2013-04-10 14:42:00,
2013-04-10 09:52:00,48.0,-99.9,-100.00,NE,45,10.0,-999.0,-999,0.00,,,0.05,,2013-04-10 14:52:00,
2013-04-10 10:03:00,49.0,-99.9,-100.00,ESE,120,4.0,-999.0,-999,0.00,,,0.05,,2013-04-10 15:03:00,
2013-04-10 10:12:00,49.0,-99.9,-100.00,ESE,120,4.0,-999.0,-999,0.00,,,0.05,,2013-04-10 15:12:00,
2013-04-10 10:23:00,49.0,-99.9,-100.00,ESE,120,4.0,-999.0,-999,0.00,,,0.05,,2013-04-10 15:23:00,
2013-04-10 11:03:00,50.0,-99.9,-100.00,South,174,5.0,-999.0,-999,0.01,,,0.06,,2013-04-10 16:03:00,
2013-04-10 11:13:00,50.0,-99.9,-100.00,South,174,5.0,-999.0,-999,0.01,,,0.06,,2013-04-10 16:13:00,
2013-04-10 11:23:00,50.0,-99.9,-100.00,South,174,5.0,-999.0,-999,0.01,,,0.06,,2013-04-10 16:23:00,
2013-04-10 11:34:00,49.0,-99.9,-100.00,NE,39,7.0,-999.0,-999,0.08,,,0.13,,2013-04-10 16:34:00,
2013-04-10 11:44:00,49.0,-99.9,-100.00,NE,39,7.0,-999.0,-999,0.08,,,0.13,,2013-04-10 16:44:00,
2013-04-10 11:53:00,49.0,-99.9,-100.00,NE,39,7.0,-999.0,-999,0.08,,,0.13,,2013-04-10 16:53:00,
2013-04-10 12:03:00,50.0,-99.9,-100.00,NNE,21,3.0,-999.0,-999,0.10,,,0.16,,2013-04-10 17:03:00,
2013-04-10 12:13:00,50.0,-99.9,-100.00,NNE,21,3.0,-999.0,-999,0.10,,,0.16,,2013-04-10 17:13:00,
2013-04-10 12:23:00,50.0,-99.9,-100.00,NNE,21,3.0,-999.0,-999,0.10,,,0.16,,2013-04-10 17:23:00,
2013-04-10 12:34:00,51.0,-99.9,-100.00,WSW,249,5.0,-999.0,-999,0.04,,,0.17,,2013-04-10 17:34:00,
2013-04-10 12:43:00,51.0,-99.9,-100.00,WSW,249,5.0,-999.0,-999,0.04,,,0.17,,2013-04-10 17:43:00,
2013-04-10 12:53:00,51.0,-99.9,-100.00,WSW,249,5.0,-999.0,-999,0.04,,,0.17,,2013-04-10 17:53:00,
2013-04-10 13:03:00,51.0,-99.9,-100.00,West,261,2.0,-999.0,-999,0.03,,,0.19,,2013-04-10 18:03:00,
2013-04-10 13:13:00,51.0,-99.9,-100.00,West,261,2.0,-999.0,-999,0.03,,,0.19,,2013-04-10 18:13:00,
2013-04-10 13:23:00,51.0,-99.9,-100.00,West,261,2.0,-999.0,-999,0.03,,,0.19,,2013-04-10 18:23:00,
2013-04-10 13:30:00,51.0,-99.9,-100.00,North,10,10.0,-999.0,-999,0.04,,,0.23,,2013-04-10 18:30:00,
2013-04-10 13:33:00,50.0,-99.9,-100.00,NNW,334,8.0,-999.0,-999,0.04,,,0.21,,2013-04-10 18:33:00,
2013-04-10 13:43:00,50.0,-99.9,-100.00,NNW,334,8.0,-999.0,-999,0.04,,,0.21,,2013-04-10 18:43:00,
2013-04-10 13:53:00,50.0,-99.9,-100.00,NNW,334,8.0,-999.0,-999,0.04,,,0.21,,2013-04-10 18:53:00,
2013-04-10 14:04:00,51.0,-99.9,-100.00,North,10,10.0,-999.0,-999,0.04,,,0.23,,2013-04-10 19:04:00,
2013-04-10 14:13:00,51.0,-99.9,-100.00,North,10,10.0,-999.0,-999,0.04,,,0.23,,2013-04-10 19:13:00,
2013-04-10 14:22:00,51.0,-99.9,-100.00,North,10,10.0,-999.0,-999,0.04,,,0.23,,2013-04-10 19:22:00,
2013-04-10 15:03:00,52.0,-99.9,-100.00,NNE,33,13.0,-999.0,-999,0.00,,,0.23,,2013-04-10 20:03:00,
2013-04-10 15:12:00,52.0,-99.9,-100.00,NNE,33,13.0,-999.0,-999,0.00,,,0.23,,2013-04-10 20:12:00,
2013-04-10 15:24:00,52.0,-99.9,-100.00,NNE,33,13.0,-999.0,-999,0.00,,,0.23,,2013-04-10 20:24:00,
2013-04-10 15:33:00,52.0,-99.9,-100.00,NNE,20,9.0,-999.0,-999,0.00,,,0.23,,2013-04-10 20:33:00,
2013-04-10 15:43:00,52.0,-99.9,-100.00,NNE,20,9.0,-999.0,-999,0.00,,,0.23,,2013-04-10 20:43:00,
2013-04-10 15:53:00,52.0,-99.9,-100.00,NNE,20,9.0,-999.0,-999,0.00,,,0.23,,2013-04-10 20:53:00,
2013-04-10 16:03:00,52.0,-99.9,-100.00,NNE,23,11.0,-999.0,-999,0.00,,,0.23,,2013-04-10 21:03:00,
2013-04-10 16:13:00,52.0,-99.9,-100.00,NNE,23,11.0,-999.0,-999,0.00,,,0.23,,2013-04-10 21:13:00,
2013-04-10 16:22:00,52.0,-99.9,-100.00,NNE,23,11.0,-999.0,-999,0.00,,,0.23,,2013-04-10 21:22:00,
2013-04-10 16:33:00,52.0,-99.9,-100.00,NNE,26,17.0,-999.0,-999,0.01,,,0.24,,2013-04-10 21:33:00,
2013-04-10 16:43:00,52.0,-99.9,-100.00,NNE,26,17.0,-999.0,-999,0.01,,,0.24,,2013-04-10 21:43:00,
2013-04-10 16:53:00,52.0,-99.9,-100.00,NNE,26,17.0,-999.0,-999,0.01,,,0.24,,2013-04-10 21:53:00,
2013-04-10 17:03:00,52.0,-99.9,-100.00,NE,40,13.0,-999.0,-999,0.02,,,0.25,,2013-04-10 22:03:00,
2013-04-10 17:13:00,52.0,-99.9,-100.00,NE,40,13.0,-999.0,-999,0.02,,,0.25,,2013-04-10 22:13:00,
2013-04-10 17:23:00,52.0,-99.9,-100.00,NE,40,13.0,-999.0,-999,0.02,,,0.25,,2013-04-10 22:23:00,
2013-04-10 17:34:00,51.0,-99.9,-100.00,NE,37,12.0,-999.0,-999,0.01,,,0.25,,2013-04-10 22:34:00,
2013-04-10 17:43:00,51.0,-99.9,-100.00,NE,37,12.0,-999.0,-999,0.01,,,0.25,,2013-04-10 22:43:00,
2013-04-10 17:53:00,51.0,-99.9,-100.00,NE,37,12.0,-999.0,-999,0.01,,,0.25,,2013-04-10 22:53:00,
2013-04-10 18:00:00,51.0,-99.9,-100.00,NW,317,12.0,-999.0,-999,0.01,,,0.26,,2013-04-10 23:00:00,
2013-04-10 18:03:00,51.0,-99.9,-100.00,NE,50,10.0,-999.0,-999,0.00,,,0.25,,2013-04-10 23:03:00,
2013-04-10 18:13:00,51.0,-99.9,-100.00,NE,50,10.0,-999.0,-999,0.00,,,0.25,,2013-04-10 23:13:00,
2013-04-10 18:23:00,51.0,-99.9,-100.00,NE,50,10.0,-999.0,-999,0.00,,,0.25,,2013-04-10 23:23:00,
2013-04-10 18:33:00,51.0,-99.9,-100.00,NW,317,12.0,-999.0,-999,0.01,,,0.26,,2013-04-10 23:33:00,
2013-04-10 18:43:00,51.0,-99.9,-100.00,NW,317,12.0,-999.0,-999,0.01,,,0.26,,2013-04-10 23:43:00,
2013-04-10 18:53:00,51.0,-99.9,-100.00,NW,317,12.0,-999.0,-999,0.01,,,0.26,,2013-04-10 23:53:00,
2013-04-10 19:32:00,49.0,-99.9,-100.00,NE,34,13.0,-999.0,-999,0.44,,,0.70,,2013-04-11 00:32:00,
2013-04-10 19:43:00,49.0,-99.9,-100.00,NE,34,13.0,-999.0,-999,0.44,,,0.70,,2013-04-11 00:43:00,
2013-04-10 19:53:00,49.0,-99.9,-100.00,NE,34,13.0,-999.0,-999,0.44,,,0.70,,2013-04-11 00:53:00,
2013-04-10 20:02:00,50.0,-99.9,-100.00,NNE,12,2.0,-999.0,-999,0.05,,,0.73,,2013-04-11 01:02:00,
2013-04-10 20:13:00,50.0,-99.9,-100.00,NNE,12,2.0,-999.0,-999,0.05,,,0.73,,2013-04-11 01:13:00,
2013-04-10 20:22:00,50.0,-99.9,-100.00,NNE,12,2.0,-999.0,-999,0.05,,,0.73,,2013-04-11 01:22:00,
2013-04-10 20:33:00,49.0,-99.9,-100.00,NNW,333,4.0,-999.0,-999,0.27,,,0.97,,2013-04-11 01:33:00,
2013-04-10 20:42:00,49.0,-99.9,-100.00,NNW,333,4.0,-999.0,-999,0.27,,,0.97,,2013-04-11 01:42:00,
2013-04-10 20:53:00,49.0,-99.9,-100.00,NNW,333,4.0,-999.0,-999,0.27,,,0.97,,2013-04-11 01:53:00,
2013-04-10 21:03:00,49.0,-99.9,-100.00,North,360,9.0,-999.0,-999,0.33,,,1.06,,2013-04-11 02:03:00,
2013-04-10 21:13:00,49.0,-99.9,-100.00,North,360,9.0,-999.0,-999,0.33,,,1.06,,2013-04-11 02:13:00,
2013-04-10 21:22:00,49.0,-99.9,-100.00,North,360,9.0,-999.0,-999,0.33,,,1.06,,2013-04-11 02:22:00,
2013-04-10 21:32:00,49.0,-99.9,-100.00,ENE,60,4.0,-999.0,-999,0.21,,,1.18,,2013-04-11 02:32:00,
2013-04-10 21:42:00,49.0,-99.9,-100.00,ENE,60,4.0,-999.0,-999,0.21,,,1.18,,2013-04-11 02:42:00,
2013-04-10 21:53:00,49.0,-99.9,-100.00,ENE,60,4.0,-999.0,-999,0.21,,,1.18,,2013-04-11 02:53:00,
2013-04-10 22:03:00,50.0,-99.9,-100.00,NE,37,10.0,-999.0,-999,0.16,,,1.22,,2013-04-11 03:03:00,
2013-04-10 22:12:00,50.0,-99.9,-100.00,NE,37,10.0,-999.0,-999,0.16,,,1.22,,2013-04-11 03:12:00,
2013-04-10 22:22:00,50.0,-99.9,-100.00,NE,37,10.0,-999.0,-999,0.16,,,1.22,,2013-04-11 03:22:00,
2013-04-10 22:33:00,50.0,-99.9,-100.00,ESE,118,1.0,-999.0,-999,0.04,,,1.22,,2013-04-11 03:33:00,
2013-04-10 22:43:00,50.0,-99.9,-100.00,ESE,118,1.0,-999.0,-999,0.04,,,1.22,,2013-04-11 03:43:00,
2013-04-10 22:54:00,50.0,-99.9,-100.00,ESE,118,1.0,-999.0,-999,0.04,,,1.22,,2013-04-11 03:54:00,
2013-04-10 23:03:00,51.0,-99.9,-100.00,ESE,123,5.0,-999.0,-999,0.00,,,1.22,,2013-04-11 04:03:00,
2013-04-10 23:13:00,51.0,-99.9,-100.00,ESE,123,5.0,-999.0,-999,0.00,,,1.22,,2013-04-11 04:13:00,
2013-04-10 23:23:00,51.0,-99.9,-100.00,ESE,123,5.0,-999.0,-999,0.00,,,1.22,,2013-04-11 04:23:00,
2013-04-10 23:33:00,51.0,-99.9,-100.00,ESE,123,4.0,-999.0,-999,0.00,,,1.22,,2013-04-11 04:33:00,
2013-04-10 23:43:00,51.0,-99.9,-100.00,ESE,123,4.0,-999.0,-999,0.00,,,1.22,,2013-04-11 04:43:00,
2013-04-10 23:53:00,51.0,-99.9,-100.00,ESE,123,4.0,-999.0,-999,0.00,,,1.22,,2013-04-11 04:53:00,